createdAt,value
2019-02-22T00:02:27.235Z,91.60
2019-02-22T00:04:57.527Z,91.70
2019-02-22T00:07:30.573Z,91.80
2019-02-22T00:10:00.379Z,91.80
2019-02-22T00:12:32.720Z,91.70
2019-02-22T00:15:05.406Z,91.80
2019-02-22T00:17:35.520Z,91.60
2019-02-22T00:20:07.229Z,91.80
2019-02-22T00:22:38.822Z,91.60
2019-02-22T00:25:12.255Z,91.70
2019-02-22T00:27:42.952Z,91.80
2019-02-22T00:30:15.807Z,91.60
2019-02-22T00:32:47.657Z,91.60
2019-02-22T00:35:20.583Z,91.80
2019-02-22T00:37:52.576Z,91.60
2019-02-22T00:40:23.989Z,91.50
2019-02-22T00:42:55.673Z,91.60
2019-02-22T00:45:27.259Z,91.40
2019-02-22T00:47:59.551Z,91.40
2019-02-22T00:50:31.388Z,91.60
2019-02-22T00:53:03.646Z,91.50
2019-02-22T00:55:34.109Z,91.70
2019-02-22T00:58:08.212Z,91.70
2019-02-22T01:00:38.826Z,91.70
2019-02-22T01:03:08.665Z,91.60
2019-02-22T01:05:40.268Z,91.60
2019-02-22T01:08:10.005Z,91.90
2019-02-22T01:10:42.355Z,91.80
2019-02-22T01:13:15.141Z,92.10
2019-02-22T01:15:45.402Z,92.00
2019-02-22T01:18:19.581Z,92.20
2019-02-22T01:20:54.337Z,92.00
2019-02-22T01:23:22.163Z,92.10
2019-02-22T01:25:52.519Z,92.10
2019-02-22T01:28:24.519Z,92.10
2019-02-22T01:30:56.351Z,92.10
2019-02-22T01:33:28.311Z,91.90
2019-02-22T01:35:58.937Z,91.80
2019-02-22T01:38:28.824Z,91.90
2019-02-22T01:41:00.704Z,91.90
2019-02-22T01:43:33.459Z,91.90
2019-02-22T01:46:06.482Z,91.90
2019-02-22T01:48:37.973Z,91.90
2019-02-22T01:51:08.540Z,91.90
2019-02-22T01:53:41.834Z,91.90
2019-02-22T01:56:12.282Z,92.00
2019-02-22T01:58:48.824Z,92.10
2019-02-22T02:01:17.244Z,92.10
2019-02-22T02:03:47.828Z,92.00
2019-02-22T02:06:19.236Z,91.90
2019-02-22T02:08:49.885Z,91.90
2019-02-22T02:11:20.343Z,92.10
2019-02-22T02:13:51.062Z,92.00
2019-02-22T02:16:22.493Z,92.00
2019-02-22T02:18:53.416Z,92.10
2019-02-22T02:21:23.556Z,92.10
2019-02-22T02:23:55.783Z,92.00
2019-02-22T02:26:27.192Z,91.90
2019-02-22T02:28:59.585Z,92.00
2019-02-22T02:31:34.409Z,92.00
2019-02-22T02:34:04.879Z,92.00
2019-02-22T02:36:36.388Z,92.20
2019-02-22T02:39:07.669Z,92.20
2019-02-22T02:41:40.623Z,92.20
2019-02-22T02:44:12.384Z,92.20
2019-02-22T02:46:42.249Z,92.20
2019-02-22T02:49:12.897Z,92.20
2019-02-22T02:51:44.705Z,92.20
2019-02-22T02:54:17.581Z,92.20
2019-02-22T02:56:48.823Z,92.20
2019-02-22T02:59:19.671Z,92.20
2019-02-22T03:01:51.026Z,92.20
2019-02-22T03:04:21.559Z,92.20
2019-02-22T03:06:53.377Z,92.20
2019-02-22T03:09:24.243Z,92.10
2019-02-22T03:11:55.000Z,92.20
2019-02-22T03:14:24.720Z,92.20
2019-02-22T03:16:56.173Z,92.20
2019-02-22T03:19:28.011Z,92.20
2019-02-22T03:21:58.610Z,92.20
2019-02-22T03:24:29.518Z,92.20
2019-02-22T03:27:01.870Z,92.20
2019-02-22T03:29:34.612Z,92.20
2019-02-22T03:32:04.808Z,92.20
2019-02-22T03:34:36.129Z,92.20
2019-02-22T03:37:06.250Z,92.20
2019-02-22T03:39:38.896Z,92.20
2019-02-22T03:42:12.581Z,92.20
2019-02-22T03:44:43.437Z,92.20
2019-02-22T03:47:15.314Z,92.20
2019-02-22T03:49:45.841Z,92.20
2019-02-22T03:52:22.644Z,92.20
2019-02-22T03:54:54.097Z,92.20
2019-02-22T03:57:25.910Z,90.70
2019-02-22T03:59:59.586Z,90.00
2019-02-22T04:02:29.925Z,88.50
2019-02-22T04:05:01.173Z,88.80
2019-02-22T04:07:32.437Z,89.00
2019-02-22T04:10:03.273Z,88.70
2019-02-22T04:12:53.298Z,89.10
2019-02-22T04:15:23.574Z,89.20
2019-02-22T04:17:57.087Z,89.70
2019-02-22T04:20:27.838Z,89.70
2019-02-22T04:22:58.812Z,90.10
2019-02-22T04:25:29.219Z,90.10
2019-02-22T04:27:59.652Z,90.50
2019-02-22T04:30:33.464Z,90.40
2019-02-22T04:33:06.408Z,90.30
2019-02-22T04:35:36.199Z,90.30
2019-02-22T04:38:08.521Z,90.30
2019-02-22T04:40:38.400Z,90.10
2019-02-22T04:43:08.791Z,90.50
2019-02-22T04:45:44.231Z,90.40
2019-02-22T04:48:14.559Z,90.40
2019-02-22T04:50:45.977Z,90.00
2019-02-22T04:53:17.811Z,89.30
2019-02-22T04:55:50.067Z,88.50
2019-02-22T04:58:19.996Z,88.50
2019-02-22T05:00:49.759Z,88.20
2019-02-22T05:03:23.387Z,88.10
2019-02-22T05:05:53.192Z,88.50
2019-02-22T05:08:25.534Z,88.80
2019-02-22T05:10:56.612Z,88.80
2019-02-22T05:13:26.884Z,88.80
2019-02-22T05:15:58.867Z,88.80
2019-02-22T05:18:29.873Z,89.20
2019-02-22T05:21:02.357Z,88.80
2019-02-22T05:23:32.699Z,88.80
2019-02-22T05:26:03.476Z,88.40
2019-02-22T05:28:34.754Z,89.00
2019-02-22T05:31:05.035Z,87.80
2019-02-22T05:33:36.970Z,87.60
2019-02-22T05:36:07.831Z,88.00
2019-02-22T05:38:39.215Z,88.20
2019-02-22T05:41:10.270Z,87.40
2019-02-22T05:43:40.985Z,87.80
2019-02-22T05:46:12.261Z,88.70
2019-02-22T05:48:43.636Z,88.80
2019-02-22T05:51:14.716Z,87.90
2019-02-22T05:53:45.322Z,88.20
2019-02-22T05:56:16.760Z,88.10
2019-02-22T05:58:51.139Z,87.60
2019-02-22T06:01:20.782Z,87.80
2019-02-22T06:03:52.530Z,88.00
2019-02-22T06:06:21.692Z,87.60
2019-02-22T06:08:52.714Z,87.60
2019-02-22T06:11:22.399Z,87.60
2019-02-22T06:13:52.911Z,87.80
2019-02-22T06:16:23.804Z,87.80
2019-02-22T06:18:54.762Z,87.20
2019-02-22T06:21:25.592Z,86.90
2019-02-22T06:23:58.082Z,86.80
2019-02-22T06:26:30.485Z,86.50
2019-02-22T06:29:02.203Z,86.70
2019-02-22T06:31:33.970Z,87.00
2019-02-22T06:34:09.791Z,86.30
2019-02-22T06:37:02.773Z,86.40
2019-02-22T06:39:34.848Z,86.50
2019-02-22T06:42:05.856Z,86.20
2019-02-22T06:44:37.058Z,86.40
2019-02-22T06:47:09.207Z,86.20
2019-02-22T06:49:39.977Z,86.20
2019-02-22T06:52:12.264Z,86.10
2019-02-22T06:54:43.619Z,86.20
2019-02-22T06:57:16.845Z,86.40
2019-02-22T06:59:47.175Z,85.90
2019-02-22T07:02:19.363Z,86.20
2019-02-22T07:04:50.253Z,86.40
2019-02-22T07:07:21.704Z,86.40
2019-02-22T07:09:54.937Z,85.40
2019-02-22T07:12:30.624Z,85.80
2019-02-22T07:14:59.679Z,85.70
2019-02-22T07:17:29.988Z,85.70
2019-02-22T07:20:01.979Z,85.80
2019-02-22T07:22:34.865Z,85.50
2019-02-22T07:25:07.679Z,85.80
2019-02-22T07:27:40.522Z,85.40
2019-02-22T07:30:12.301Z,86.00
2019-02-22T07:32:42.862Z,86.50
2019-02-22T07:35:14.344Z,86.10
2019-02-22T07:37:46.032Z,85.90
2019-02-22T07:40:19.991Z,85.40
2019-02-22T07:42:51.490Z,85.40
2019-02-22T07:45:21.804Z,85.20
2019-02-22T07:47:55.828Z,84.50
2019-02-22T07:50:27.823Z,85.20
2019-02-22T07:52:57.981Z,84.90
2019-02-22T07:55:29.686Z,85.20
2019-02-22T07:58:01.544Z,85.40
2019-02-22T08:00:33.070Z,84.90
2019-02-22T08:03:03.645Z,84.40
2019-02-22T08:05:35.749Z,84.70
2019-02-22T08:08:07.127Z,84.60
2019-02-22T08:10:38.058Z,84.40
2019-02-22T08:13:19.236Z,84.90
2019-02-22T08:15:41.206Z,83.60
2019-02-22T08:18:14.745Z,84.00
2019-02-22T08:20:47.926Z,84.20
2019-02-22T08:23:19.987Z,83.70
2019-02-22T08:25:51.989Z,83.30
2019-02-22T08:28:22.752Z,83.80
2019-02-22T08:30:54.370Z,84.10
2019-02-22T08:33:26.375Z,84.10
2019-02-22T08:35:57.901Z,83.80
2019-02-22T08:38:28.204Z,83.40
2019-02-22T08:40:59.442Z,83.90
2019-02-22T08:43:31.800Z,83.50
2019-02-22T08:46:03.352Z,83.20
2019-02-22T08:48:33.060Z,81.60
2019-02-22T08:51:04.739Z,81.40
2019-02-22T08:53:36.144Z,80.60
2019-02-22T08:56:05.791Z,80.30
2019-02-22T08:58:36.637Z,79.90
2019-02-22T09:01:08.855Z,79.30
2019-02-22T09:03:49.939Z,78.50
2019-02-22T09:06:13.391Z,79.20
2019-02-22T09:08:44.328Z,79.10
2019-02-22T09:11:14.688Z,77.30
2019-02-22T09:13:45.737Z,76.50
2019-02-22T09:16:17.117Z,77.40
2019-02-22T09:18:47.907Z,75.30
2019-02-22T09:21:19.508Z,75.50
2019-02-22T09:23:50.218Z,74.70
2019-02-22T09:26:20.997Z,72.90
2019-02-22T09:28:55.553Z,71.40
2019-02-22T09:31:27.803Z,71.00
2019-02-22T09:33:58.054Z,71.70
2019-02-22T09:36:27.890Z,72.70
2019-02-22T09:38:58.110Z,69.10
2019-02-22T09:41:29.146Z,69.80
2019-02-22T09:44:01.084Z,70.40
2019-02-22T09:46:30.422Z,71.00
2019-02-22T09:49:03.654Z,69.00
2019-02-22T09:51:34.565Z,69.80
2019-02-22T09:54:06.820Z,70.70
2019-02-22T09:56:37.102Z,69.90
2019-02-22T09:59:07.284Z,69.80
2019-02-22T10:01:38.732Z,68.90
2019-02-22T10:04:12.181Z,67.30
2019-02-22T10:06:43.544Z,66.90
2019-02-22T10:09:18.400Z,68.40
2019-02-22T10:11:50.671Z,67.50
2019-02-22T10:14:20.354Z,70.60
2019-02-22T10:16:51.583Z,68.60
2019-02-22T10:19:23.900Z,67.70
2019-02-22T10:21:57.500Z,67.10
2019-02-22T10:24:28.151Z,67.10
2019-02-22T10:26:58.575Z,68.40
2019-02-22T10:29:29.436Z,67.10
2019-02-22T10:32:03.276Z,69.60
2019-02-22T10:34:34.084Z,66.90
2019-02-22T10:37:08.010Z,63.70
2019-02-22T10:39:37.750Z,61.60
2019-02-22T10:42:12.179Z,59.10
2019-02-22T10:44:44.008Z,59.80
2019-02-22T10:47:14.315Z,59.20
2019-02-22T10:49:43.055Z,58.40
2019-02-22T10:52:14.251Z,58.80
2019-02-22T10:54:44.674Z,60.50
2019-02-22T10:57:16.474Z,58.50
2019-02-22T10:59:46.163Z,58.70
2019-02-22T11:02:16.523Z,60.30
2019-02-22T11:07:18.512Z,59.30
2019-02-22T11:09:49.083Z,56.20
2019-02-22T11:12:20.490Z,56.80
2019-02-22T11:14:51.709Z,53.20
2019-02-22T11:17:26.655Z,52.50
2019-02-22T11:19:59.786Z,52.20
2019-02-22T11:22:32.619Z,52.40
2019-02-22T11:25:03.334Z,54.70
2019-02-22T11:27:35.356Z,56.60
2019-02-22T11:30:07.679Z,58.80
2019-02-22T11:32:37.267Z,57.20
2019-02-22T11:35:09.618Z,56.60
2019-02-22T11:37:42.234Z,55.80
2019-02-22T11:40:15.730Z,54.90
2019-02-22T11:42:47.111Z,54.50
2019-02-22T11:45:19.079Z,52.50
2019-02-22T11:47:50.104Z,51.60
2019-02-22T11:50:22.307Z,53.00
2019-02-22T11:52:53.888Z,49.10
2019-02-22T11:55:25.312Z,50.60
2019-02-22T11:57:58.404Z,48.80
2019-02-22T12:00:31.790Z,49.30
2019-02-22T12:03:21.316Z,47.00
2019-02-22T12:05:41.499Z,47.50
2019-02-22T12:08:13.186Z,46.60
2019-02-22T12:10:45.690Z,46.60
2019-02-22T12:13:17.787Z,45.00
2019-02-22T12:15:49.159Z,48.00
2019-02-22T12:18:21.328Z,44.60
2019-02-22T12:20:52.606Z,45.30
2019-02-22T12:23:22.539Z,45.20
2019-02-22T12:25:54.115Z,44.20
2019-02-22T12:28:23.796Z,44.10
2019-02-22T12:30:54.606Z,43.60
2019-02-22T12:33:26.765Z,39.90
2019-02-22T12:35:58.946Z,40.40
2019-02-22T12:38:29.819Z,42.30
2019-02-22T12:41:01.166Z,44.30
2019-02-22T12:43:33.211Z,42.80
2019-02-22T12:46:03.634Z,42.20
2019-02-22T12:48:35.240Z,42.60
2019-02-22T12:51:06.062Z,43.00
2019-02-22T12:53:36.790Z,43.70
2019-02-22T12:56:08.269Z,43.20
2019-02-22T12:58:38.898Z,45.30
2019-02-22T13:01:11.346Z,43.70
2019-02-22T13:03:43.478Z,42.70
2019-02-22T13:06:15.670Z,41.50
2019-02-22T13:08:48.068Z,41.90
2019-02-22T13:11:20.309Z,43.40
2019-02-22T13:13:52.635Z,41.90
2019-02-22T13:16:22.933Z,42.20
2019-02-22T13:18:55.121Z,41.20
2019-02-22T13:21:24.987Z,41.10
2019-02-22T13:23:57.285Z,42.90
2019-02-22T13:26:28.430Z,40.90
2019-02-22T13:29:04.903Z,40.70
2019-02-22T13:31:36.277Z,42.80
2019-02-22T13:34:09.976Z,43.00
2019-02-22T13:36:40.861Z,42.00
2019-02-22T13:39:11.518Z,42.60
2019-02-22T13:41:45.208Z,41.20
2019-02-22T13:44:18.310Z,41.50
2019-02-22T13:46:49.157Z,41.90
2019-02-22T13:49:21.090Z,41.00
2019-02-22T13:51:52.406Z,41.80
2019-02-22T13:54:24.738Z,41.00
2019-02-22T13:56:55.499Z,41.00
2019-02-22T13:59:27.250Z,42.00
2019-02-22T14:01:58.553Z,41.20
2019-02-22T14:04:30.138Z,40.10
2019-02-22T14:07:21.749Z,40.90
2019-02-22T14:09:55.487Z,39.90
2019-02-22T14:12:27.078Z,41.50
2019-02-22T14:14:58.884Z,40.70
2019-02-22T14:17:31.368Z,41.60
2019-02-22T14:20:23.062Z,43.30
2019-02-22T14:22:53.468Z,42.00
2019-02-22T14:25:23.290Z,41.60
2019-02-22T14:27:56.563Z,41.70
2019-02-22T14:30:27.528Z,42.50
2019-02-22T14:32:58.046Z,40.50
2019-02-22T14:35:33.068Z,40.50
2019-02-22T14:38:05.343Z,40.90
2019-02-22T14:40:36.830Z,41.10
2019-02-22T14:43:16.690Z,42.30
2019-02-22T14:45:50.457Z,41.90
2019-02-22T14:48:15.353Z,42.90
2019-02-22T14:50:46.344Z,42.70
2019-02-22T14:53:19.787Z,42.90
2019-02-22T14:55:53.580Z,43.10
2019-02-22T14:58:23.425Z,43.10
2019-02-22T15:00:57.000Z,43.60
2019-02-22T15:03:27.875Z,43.20
2019-02-22T15:06:00.720Z,43.80
2019-02-22T15:08:30.324Z,43.80
2019-02-22T15:11:00.796Z,45.50
2019-02-22T15:13:33.003Z,46.10
2019-02-22T15:16:04.190Z,48.40
2019-02-22T15:18:34.511Z,50.80
2019-02-22T15:21:06.092Z,52.00
2019-02-22T15:23:39.552Z,53.30
2019-02-22T15:26:10.002Z,52.20
2019-02-22T15:28:42.887Z,51.70
2019-02-22T15:31:14.406Z,51.50
2019-02-22T15:33:49.951Z,50.70
2019-02-22T15:36:22.213Z,50.30
2019-02-22T15:38:53.427Z,50.40
2019-02-22T15:41:24.628Z,51.10
2019-02-22T15:43:55.994Z,51.40
2019-02-22T15:46:26.749Z,53.40
2019-02-22T15:48:56.425Z,53.60
2019-02-22T15:51:26.262Z,54.00
2019-02-22T15:53:56.700Z,55.30
2019-02-22T15:56:26.412Z,55.50
2019-02-22T15:58:58.360Z,55.90
2019-02-22T16:01:28.950Z,56.10
2019-02-22T16:04:06.643Z,56.20
2019-02-22T16:06:37.343Z,56.00
2019-02-22T16:09:09.546Z,57.40
2019-02-22T16:11:43.794Z,57.60
2019-02-22T16:14:14.095Z,57.60
2019-02-22T16:16:46.710Z,57.30
2019-02-22T16:19:18.451Z,57.30
2019-02-22T16:21:48.686Z,57.50
2019-02-22T16:24:19.381Z,58.30
2019-02-22T16:26:51.135Z,58.30
2019-02-22T16:29:22.668Z,59.80
2019-02-22T16:31:53.094Z,59.20
2019-02-22T16:34:24.698Z,59.80
2019-02-22T16:36:56.655Z,59.30
2019-02-22T16:39:29.911Z,58.80
2019-02-22T16:42:00.717Z,59.70
2019-02-22T16:44:31.682Z,59.80
2019-02-22T16:47:04.209Z,60.00
2019-02-22T16:49:35.617Z,60.10
2019-02-22T16:52:06.781Z,60.10
2019-02-22T16:54:37.377Z,60.40
2019-02-22T16:57:08.327Z,60.90
2019-02-22T16:59:42.716Z,60.10
2019-02-22T17:02:14.067Z,60.00
2019-02-22T17:04:44.475Z,59.60
2019-02-22T17:07:17.386Z,60.40
2019-02-22T17:09:47.006Z,60.20
2019-02-22T17:12:17.381Z,60.70
2019-02-22T17:14:48.515Z,60.90
2019-02-22T17:17:19.960Z,61.20
2019-02-22T17:19:50.202Z,61.60
2019-02-22T17:22:22.234Z,61.40
2019-02-22T17:24:53.787Z,60.20
2019-02-22T17:27:24.101Z,60.80
2019-02-22T17:29:53.800Z,61.00
2019-02-22T17:32:24.505Z,61.10
2019-02-22T17:34:55.157Z,60.20
2019-02-22T17:37:25.715Z,60.60
2019-02-22T17:39:56.004Z,61.20
2019-02-22T17:42:28.835Z,61.30
2019-02-22T17:45:01.190Z,61.80
2019-02-22T17:47:32.694Z,62.10
2019-02-22T17:50:03.959Z,61.30
2019-02-22T17:52:35.527Z,61.90
2019-02-22T17:55:08.346Z,61.90
2019-02-22T17:57:37.050Z,61.30
2019-02-22T18:00:28.423Z,62.00
2019-02-22T18:03:00.326Z,61.60
2019-02-22T18:05:31.924Z,62.00
2019-02-22T18:08:03.130Z,61.70
2019-02-22T18:10:34.551Z,62.00
2019-02-22T18:13:05.238Z,62.40
2019-02-22T18:15:36.307Z,62.50
2019-02-22T18:18:07.082Z,62.10
2019-02-22T18:20:38.139Z,62.00
2019-02-22T18:23:09.424Z,61.80
2019-02-22T18:25:42.568Z,61.70
2019-02-22T18:28:12.073Z,61.90
2019-02-22T18:30:43.008Z,61.40
2019-02-22T18:33:14.434Z,62.10
2019-02-22T18:35:46.334Z,61.50
2019-02-22T18:38:16.006Z,62.10
2019-02-22T18:40:48.211Z,62.40
2019-02-22T18:43:20.237Z,62.30
2019-02-22T18:45:52.138Z,62.50
2019-02-22T18:48:24.180Z,62.10
2019-02-22T18:50:55.884Z,62.60
2019-02-22T18:53:26.134Z,62.30
2019-02-22T18:55:58.002Z,61.90
2019-02-22T18:58:31.398Z,62.00
2019-02-22T19:01:02.317Z,62.80
2019-02-22T19:03:32.387Z,61.30
2019-02-22T19:06:02.003Z,61.70
2019-02-22T19:08:32.795Z,61.20
2019-02-22T19:11:03.506Z,60.60
2019-02-22T19:13:34.018Z,61.20
2019-02-22T19:16:05.798Z,61.00
2019-02-22T19:18:38.710Z,60.90
2019-02-22T19:21:10.168Z,60.40
2019-02-22T19:23:40.694Z,60.50
2019-02-22T19:26:10.343Z,59.90
2019-02-22T19:28:42.379Z,59.50
2019-02-22T19:31:13.974Z,60.00
2019-02-22T19:33:49.736Z,60.80
2019-02-22T19:36:22.219Z,60.90
2019-02-22T19:38:54.200Z,61.70
2019-02-22T19:41:25.470Z,61.00
2019-02-22T19:43:56.906Z,61.20
2019-02-22T19:46:29.806Z,61.70
2019-02-22T19:48:59.393Z,61.70
2019-02-22T19:51:31.331Z,60.40
2019-02-22T19:54:02.691Z,61.10
2019-02-22T19:56:34.006Z,61.30
2019-02-22T19:59:05.502Z,61.50
2019-02-22T20:01:36.696Z,61.70
2019-02-22T20:04:06.498Z,62.60
2019-02-22T20:06:36.871Z,62.70
2019-02-22T20:09:08.473Z,63.10
2019-02-22T20:11:40.989Z,62.70
2019-02-22T20:14:14.970Z,63.30
2019-02-22T20:16:48.987Z,63.30
2019-02-22T20:19:20.954Z,63.60
2019-02-22T20:21:51.667Z,63.50
2019-02-22T20:24:22.864Z,63.10
2019-02-22T20:26:54.254Z,63.20
2019-02-22T20:29:24.008Z,63.70
2019-02-22T20:31:53.388Z,64.00
2019-02-22T20:34:24.957Z,64.10
2019-02-22T20:36:56.346Z,64.10
2019-02-22T20:39:26.932Z,63.70
2019-02-22T20:41:57.214Z,64.00
2019-02-22T20:44:29.240Z,64.20
2019-02-22T20:47:01.052Z,64.70
2019-02-22T20:49:33.751Z,64.20
2019-02-22T20:52:06.329Z,65.70
2019-02-22T20:54:37.868Z,65.30
2019-02-22T20:57:10.131Z,64.90
2019-02-22T20:59:40.802Z,64.80
2019-02-22T21:02:11.100Z,65.30
2019-02-22T21:04:43.895Z,64.70
2019-02-22T21:07:15.934Z,65.20
2019-02-22T21:09:47.923Z,65.10
2019-02-22T21:12:19.243Z,65.50
2019-02-22T21:14:50.886Z,65.60
2019-02-22T21:17:24.904Z,66.10
2019-02-22T21:19:55.939Z,66.00
2019-02-22T21:22:26.726Z,66.00
2019-02-22T21:24:57.492Z,66.10
2019-02-22T21:27:27.987Z,66.30
2019-02-22T21:30:00.346Z,65.30
2019-02-22T21:32:31.453Z,66.80
2019-02-22T21:35:02.942Z,66.80
2019-02-22T21:37:33.641Z,67.90
2019-02-22T21:40:04.880Z,68.90
2019-02-22T21:42:37.258Z,68.30
2019-02-22T21:45:27.874Z,68.60
2019-02-22T21:47:58.070Z,68.90
2019-02-22T21:50:29.014Z,67.30
2019-02-22T21:53:01.100Z,67.20
2019-02-22T21:55:31.536Z,68.00
2019-02-22T21:58:02.947Z,67.50
2019-02-22T22:00:32.851Z,67.80
2019-02-22T22:03:04.671Z,67.50
2019-02-22T22:05:34.909Z,67.10
2019-02-22T22:08:05.202Z,67.40
2019-02-22T22:10:35.819Z,66.80
2019-02-22T22:13:06.809Z,67.20
2019-02-22T22:15:38.605Z,68.00
2019-02-22T22:18:09.270Z,68.20
2019-02-22T22:20:40.805Z,67.70
2019-02-22T22:23:12.062Z,67.20
2019-02-22T22:25:43.178Z,67.20
2019-02-22T22:28:14.239Z,66.70
2019-02-22T22:30:46.305Z,67.70
2019-02-22T22:33:17.373Z,67.70
2019-02-22T22:35:48.721Z,67.90
2019-02-22T22:38:19.122Z,68.30
2019-02-22T22:40:50.140Z,68.40
2019-02-22T22:43:21.287Z,68.20
2019-02-22T22:45:52.596Z,68.00
2019-02-22T22:48:22.632Z,68.10
2019-02-22T22:50:51.797Z,68.70
2019-02-22T22:53:22.637Z,69.60
2019-02-22T22:55:55.562Z,69.50
2019-02-22T22:58:25.905Z,70.00
2019-02-22T23:01:04.150Z,70.80
2019-02-22T23:03:33.651Z,70.60
2019-02-22T23:06:02.811Z,71.20
2019-02-22T23:08:33.417Z,71.00
2019-02-22T23:11:05.076Z,70.00
2019-02-22T23:13:34.659Z,70.00
2019-02-22T23:16:06.724Z,70.40
2019-02-22T23:18:36.430Z,70.60
2019-02-22T23:21:11.203Z,71.20
2019-02-22T23:23:43.154Z,70.90
2019-02-22T23:26:13.902Z,70.70
2019-02-22T23:28:44.261Z,70.60
2019-02-22T23:31:15.916Z,70.40
2019-02-22T23:33:46.483Z,70.80
2019-02-22T23:36:18.094Z,72.00
2019-02-22T23:38:51.363Z,72.30
2019-02-22T23:41:22.188Z,73.40
2019-02-22T23:43:53.565Z,73.00
2019-02-22T23:46:25.498Z,72.80
2019-02-22T23:48:57.050Z,72.60
2019-02-22T23:51:27.704Z,73.20
2019-02-22T23:53:58.322Z,72.70
2019-02-22T23:56:30.053Z,73.40
2019-02-22T23:59:00.430Z,73.40
